createdAt,value
2016-10-08T00:00:37.389Z,8.87
2016-10-08T00:01:37.404Z,8.92
2016-10-08T00:02:37.424Z,8.98
2016-10-08T00:03:37.453Z,8.95
2016-10-08T00:04:37.572Z,9.02
2016-10-08T00:06:37.512Z,9.15
2016-10-08T00:07:37.531Z,9.17
2016-10-08T00:08:37.552Z,9.21
2016-10-08T00:09:37.578Z,9.18
2016-10-08T00:10:37.593Z,9.2
2016-10-08T00:12:52.555Z,9.21
2016-10-08T00:13:37.959Z,9.13
2016-10-08T00:14:37.673Z,9.13
2016-10-08T00:15:37.698Z,9.13
2016-10-08T00:16:37.718Z,9.21
2016-10-08T00:17:37.736Z,9.23
2016-10-08T00:18:37.761Z,9.24
2016-10-08T00:19:37.778Z,9.14
2016-10-08T00:20:37.803Z,9.14
2016-10-08T00:21:37.821Z,9.21
2016-10-08T00:22:37.845Z,9.24
2016-10-08T00:23:37.862Z,9.2
2016-10-08T00:24:37.891Z,9.28
2016-10-08T00:25:37.906Z,9.26
2016-10-08T00:26:37.923Z,9.15
2016-10-08T00:27:52.865Z,8.99
2016-10-08T00:28:52.887Z,9.05
2016-10-08T00:29:37.989Z,8.92
2016-10-08T00:30:38.006Z,8.89
2016-10-08T00:31:38.025Z,8.81
2016-10-08T00:32:38.049Z,8.89
2016-10-08T00:33:38.066Z,8.83
2016-10-08T00:34:38.089Z,8.74
2016-10-08T00:35:38.128Z,8.76
2016-10-08T00:36:38.129Z,8.71
2016-10-08T00:37:38.154Z,8.7
2016-10-08T00:38:38.265Z,8.56
2016-10-08T00:39:38.197Z,8.68
2016-10-08T00:40:53.136Z,8.55
2016-10-08T00:41:38.234Z,8.58
2016-10-08T00:42:38.265Z,8.52
2016-10-08T00:43:38.274Z,8.53
2016-10-08T00:44:53.221Z,8.48
2016-10-08T00:45:38.315Z,8.5
2016-10-08T00:46:38.362Z,8.5
2016-10-08T00:47:38.361Z,8.44
2016-10-08T00:48:38.377Z,8.52
2016-10-08T00:49:38.406Z,8.43
2016-10-08T00:50:38.422Z,8.41
2016-10-08T00:51:38.447Z,8.52
2016-10-08T00:52:38.458Z,8.41
2016-10-08T00:53:38.478Z,8.41
2016-10-08T00:54:38.497Z,8.36
2016-10-08T00:55:38.821Z,8.41
2016-10-08T00:56:38.544Z,8.34
2016-10-08T00:57:38.558Z,8.44
2016-10-08T00:58:38.590Z,8.37
2016-10-08T00:59:53.523Z,8.38
2016-10-08T01:00:38.630Z,8.41
2016-10-08T01:01:38.970Z,8.41
2016-10-08T01:03:38.681Z,8.4
2016-10-08T01:04:38.759Z,8.4
2016-10-08T01:05:38.724Z,8.41
2016-10-08T01:06:38.802Z,8.44
2016-10-08T01:08:38.792Z,8.34
2016-10-08T01:09:53.732Z,8.4
2016-10-08T01:10:53.751Z,8.34
2016-10-08T01:11:38.848Z,8.4
2016-10-08T01:12:38.864Z,8.33
2016-10-08T01:13:38.885Z,8.34
2016-10-08T01:14:38.915Z,8.41
2016-10-08T01:15:38.931Z,8.44
2016-10-08T01:16:38.950Z,8.36
2016-10-08T01:17:39.301Z,8.41
2016-10-08T01:18:38.989Z,8.41
2016-10-08T01:19:39.007Z,8.36
2016-10-08T01:20:39.036Z,8.43
2016-10-08T01:21:39.056Z,8.41
2016-10-08T01:22:39.091Z,8.43
2016-10-08T01:24:39.110Z,8.45
2016-10-08T01:25:39.384Z,8.37
2016-10-08T01:26:39.163Z,8.44
2016-10-08T01:27:39.168Z,8.34
2016-10-08T01:28:39.187Z,8.34
2016-10-08T01:29:39.214Z,8.38
2016-10-08T01:30:39.240Z,8.43
2016-10-08T01:31:54.179Z,8.43
2016-10-08T01:32:39.275Z,8.43
2016-10-08T01:33:39.302Z,8.44
2016-10-08T01:34:39.331Z,8.47
2016-10-08T01:35:39.339Z,8.52
2016-10-08T01:36:39.360Z,8.56
2016-10-08T01:37:39.378Z,8.34
2016-10-08T01:40:39.441Z,8.55
2016-10-08T01:41:39.456Z,8.48
2016-10-08T01:42:39.482Z,8.52
2016-10-08T01:43:39.514Z,8.55
2016-10-08T01:44:39.535Z,8.59
2016-10-08T01:45:39.547Z,8.66
2016-10-08T01:46:39.558Z,8.68
2016-10-08T01:47:54.507Z,8.58
2016-10-08T01:48:39.605Z,8.59
2016-10-08T01:49:39.619Z,8.58
2016-10-08T01:50:39.639Z,8.65
2016-10-08T01:52:39.680Z,8.71
2016-10-08T01:53:39.700Z,8.68
2016-10-08T01:54:39.723Z,8.68
2016-10-08T01:55:39.764Z,8.84
2016-10-08T01:56:39.770Z,8.8
2016-10-08T01:57:39.990Z,8.71
2016-10-08T01:58:39.807Z,8.73
2016-10-08T01:59:54.751Z,8.63
2016-10-08T02:00:39.846Z,8.76
2016-10-08T02:01:39.912Z,8.76
2016-10-08T02:02:39.936Z,8.74
2016-10-08T02:03:54.825Z,8.71
2016-10-08T02:04:39.923Z,8.71
2016-10-08T02:05:39.950Z,8.68
2016-10-08T02:06:39.966Z,8.73
2016-10-08T02:07:39.987Z,8.71
2016-10-08T02:08:40.011Z,8.76
2016-10-08T02:09:40.028Z,8.63
2016-10-08T02:10:40.049Z,8.76
2016-10-08T02:11:40.065Z,8.7
2016-10-08T02:12:40.342Z,8.66
2016-10-08T02:13:40.115Z,8.86
2016-10-08T02:15:40.169Z,8.84
2016-10-08T02:16:40.172Z,8.91
2016-10-08T02:17:40.201Z,8.79
2016-10-08T02:18:40.217Z,8.79
2016-10-08T02:19:55.159Z,8.87
2016-10-08T02:20:40.256Z,8.87
2016-10-08T02:21:40.275Z,8.89
2016-10-08T02:22:40.288Z,8.87
2016-10-08T02:23:40.311Z,8.92
2016-10-08T02:24:40.341Z,8.94
2016-10-08T02:25:40.356Z,8.94
2016-10-08T02:26:40.380Z,8.98
2016-10-08T02:27:40.398Z,9.05
2016-10-08T02:28:40.414Z,8.98
2016-10-08T02:29:40.433Z,9.01
2016-10-08T02:30:40.465Z,8.94
2016-10-08T02:31:55.403Z,8.95
2016-10-08T02:32:40.814Z,8.94
2016-10-08T02:34:55.464Z,8.95
2016-10-08T02:35:40.567Z,8.98
2016-10-08T02:36:40.586Z,8.96
2016-10-08T02:38:40.622Z,8.94
2016-10-08T02:39:40.645Z,8.89
2016-10-08T02:40:40.962Z,8.92
2016-10-08T02:41:40.689Z,8.95
2016-10-08T02:42:40.707Z,9.02
2016-10-08T02:43:40.727Z,9.01
2016-10-08T02:44:40.799Z,9.01
2016-10-08T02:46:55.711Z,9.04
2016-10-08T02:47:55.730Z,9.08
2016-10-08T02:48:40.825Z,9.04
2016-10-08T02:49:40.850Z,9.1
2016-10-08T02:50:40.868Z,9.04
2016-10-08T02:51:41.193Z,8.95
2016-10-08T02:52:40.909Z,8.98
2016-10-08T02:53:41.230Z,8.98
2016-10-08T02:54:40.955Z,8.96
2016-10-08T02:55:41.268Z,8.99
2016-10-08T02:56:40.989Z,9.05
2016-10-08T02:57:41.009Z,9.11
2016-10-08T02:58:41.028Z,9.02
2016-10-08T02:59:41.064Z,9.11
2016-10-08T03:00:41.072Z,9.05
2016-10-08T03:01:41.113Z,9.08
2016-10-08T03:02:41.109Z,9.08
2016-10-08T03:03:41.129Z,9.17
2016-10-08T03:04:41.148Z,9.14
2016-10-08T03:05:41.174Z,9.15
2016-10-08T03:06:56.112Z,9.18
2016-10-08T03:07:41.213Z,9.13
2016-10-08T03:08:41.231Z,9.05
2016-10-08T03:09:41.259Z,9.04
2016-10-08T03:10:41.292Z,9.05
2016-10-08T03:11:41.311Z,8.99
2016-10-08T03:12:41.319Z,8.98
2016-10-08T03:13:41.338Z,8.92
2016-10-08T03:14:41.358Z,8.87
2016-10-08T03:15:41.379Z,8.87
2016-10-08T03:16:41.402Z,8.89
2016-10-08T03:17:41.413Z,8.81
2016-10-08T03:18:41.685Z,8.87
2016-10-08T03:19:41.465Z,8.87
2016-10-08T03:20:41.480Z,8.84
2016-10-08T03:21:41.494Z,8.83
2016-10-08T03:22:56.442Z,8.91
2016-10-08T03:23:41.538Z,8.95
2016-10-08T03:25:41.582Z,8.98
2016-10-08T03:26:41.599Z,8.95
2016-10-08T03:27:41.619Z,8.98
2016-10-08T03:28:41.649Z,8.92
2016-10-08T03:29:41.666Z,8.98
2016-10-08T03:30:41.685Z,8.86
2016-10-08T03:31:41.714Z,8.83
2016-10-08T03:32:56.651Z,8.95
2016-10-08T03:33:42.042Z,8.95
2016-10-08T03:34:41.760Z,8.91
2016-10-08T03:35:41.784Z,9.01
2016-10-08T03:36:42.053Z,9.05
2016-10-08T03:37:41.830Z,8.99
2016-10-08T03:38:56.768Z,8.99
2016-10-08T03:39:41.866Z,8.95
2016-10-08T03:40:41.892Z,9.04
2016-10-08T03:41:41.913Z,9.05
2016-10-08T03:42:41.941Z,8.94
2016-10-08T03:43:41.950Z,8.96
2016-10-08T03:44:42.219Z,8.94
2016-10-08T03:45:41.990Z,9.01
2016-10-08T03:46:42.011Z,9.04
2016-10-08T03:47:42.032Z,9.11
2016-10-08T03:49:42.317Z,8.94
2016-10-08T03:50:57.014Z,9.1
2016-10-08T03:53:42.159Z,9.05
2016-10-08T03:54:57.096Z,9.13
2016-10-08T03:55:42.194Z,9.01
2016-10-08T03:56:42.519Z,9.17
2016-10-08T03:57:42.227Z,9.18
2016-10-08T03:58:42.255Z,9.11
2016-10-08T03:59:42.280Z,9.14
2016-10-08T04:00:42.301Z,9.15
2016-10-08T04:01:42.616Z,9.15
2016-10-08T04:02:42.347Z,9.13
2016-10-08T04:03:42.360Z,9.1
2016-10-08T04:04:42.379Z,9.13
2016-10-08T04:05:42.397Z,9.15
2016-10-08T04:06:42.420Z,9.11
2016-10-08T04:07:42.440Z,9.17
2016-10-08T04:08:57.383Z,9.21
2016-10-08T04:09:57.404Z,9.28
2016-10-08T04:10:42.500Z,9.14
2016-10-08T04:11:42.775Z,9.26
2016-10-08T04:12:42.543Z,9.26
2016-10-08T04:13:42.564Z,9.23
2016-10-08T04:14:42.588Z,9.26
2016-10-08T04:15:42.604Z,9.26
2016-10-08T04:16:42.625Z,9.26
2016-10-08T04:17:42.645Z,9.24
2016-10-08T04:18:43.214Z,9.21
2016-10-08T04:19:42.684Z,9.23
2016-10-08T04:20:57.630Z,9.31
2016-10-08T04:21:57.653Z,9.26
2016-10-08T04:22:42.757Z,9.23
2016-10-08T04:23:42.763Z,9.2
2016-10-08T04:24:57.709Z,9.26
2016-10-08T04:25:57.731Z,9.28
2016-10-08T04:26:42.833Z,9.23
2016-10-08T04:27:42.849Z,9.21
2016-10-08T04:28:42.869Z,9.21
2016-10-08T04:29:42.896Z,9.28
2016-10-08T04:30:42.916Z,9.38
2016-10-08T04:31:42.936Z,9.38
2016-10-08T04:32:43.060Z,9.24
2016-10-08T04:33:42.972Z,9.24
2016-10-08T04:34:42.995Z,9.29
2016-10-08T04:35:43.018Z,9.31
2016-10-08T04:36:43.042Z,9.36
2016-10-08T04:37:57.981Z,9.33
2016-10-08T04:38:43.082Z,9.38
2016-10-08T04:39:43.101Z,9.42
2016-10-08T04:40:58.042Z,9.39
2016-10-08T04:41:58.061Z,9.32
2016-10-08T04:42:43.164Z,9.39
2016-10-08T04:43:43.188Z,9.35
2016-10-08T04:44:43.503Z,9.35
2016-10-08T04:45:43.327Z,9.42
2016-10-08T04:46:43.245Z,9.38
2016-10-08T04:47:43.262Z,9.38
2016-10-08T04:48:43.292Z,9.38
2016-10-08T04:50:43.335Z,9.35
2016-10-08T04:52:43.367Z,9.39
2016-10-08T04:53:58.313Z,9.35
2016-10-08T04:54:43.414Z,9.36
2016-10-08T04:55:43.471Z,9.35
2016-10-08T04:56:43.453Z,9.35
2016-10-08T04:57:58.398Z,9.43
2016-10-08T04:58:43.489Z,9.39
2016-10-08T04:59:43.529Z,9.35
2016-10-08T05:00:43.534Z,9.33
2016-10-08T05:02:43.574Z,9.35
2016-10-08T05:03:43.597Z,9.38
2016-10-08T05:04:43.615Z,9.38
2016-10-08T05:05:43.635Z,9.48
2016-10-08T05:06:43.655Z,9.32
2016-10-08T05:07:43.676Z,9.29
2016-10-08T05:08:43.698Z,9.38
2016-10-08T05:09:43.714Z,9.43
2016-10-08T05:10:43.742Z,9.38
2016-10-08T05:11:43.761Z,9.36
2016-10-08T05:12:58.701Z,9.33
2016-10-08T05:13:58.725Z,9.46
2016-10-08T05:14:43.830Z,9.35
2016-10-08T05:15:43.848Z,9.32
2016-10-08T05:16:43.863Z,9.32
2016-10-08T05:17:43.886Z,9.29
2016-10-08T05:18:43.911Z,9.35
2016-10-08T05:19:43.925Z,9.35
2016-10-08T05:20:43.954Z,9.38
2016-10-08T05:21:43.972Z,9.4
2016-10-08T05:22:43.985Z,9.42
2016-10-08T05:23:44.006Z,9.42
2016-10-08T05:24:44.337Z,9.38
2016-10-08T05:25:44.053Z,9.36
2016-10-08T05:26:44.072Z,9.31
2016-10-08T05:27:44.088Z,9.38
2016-10-08T05:28:44.117Z,9.51
2016-10-08T05:29:59.067Z,9.48
2016-10-08T05:30:44.155Z,9.47
2016-10-08T05:31:44.183Z,9.46
2016-10-08T05:32:44.203Z,9.47
2016-10-08T05:33:44.218Z,9.47
2016-10-08T05:34:44.237Z,9.43
2016-10-08T05:35:44.261Z,9.5
2016-10-08T05:36:44.277Z,9.46
2016-10-08T05:37:44.299Z,9.46
2016-10-08T05:38:44.328Z,9.33
2016-10-08T05:39:44.599Z,9.42
2016-10-08T05:40:44.363Z,9.43
2016-10-08T05:41:59.315Z,9.4
2016-10-08T05:42:44.433Z,9.46
2016-10-08T05:43:44.434Z,9.46
2016-10-08T05:44:59.368Z,9.39
2016-10-08T05:45:44.470Z,9.47
2016-10-08T05:46:44.495Z,9.46
2016-10-08T05:47:44.513Z,9.46
2016-10-08T05:48:44.532Z,9.5
2016-10-08T05:49:44.559Z,9.51
2016-10-08T05:50:44.578Z,9.54
2016-10-08T05:51:44.594Z,9.48
2016-10-08T05:52:44.919Z,9.42
2016-10-08T05:53:44.637Z,9.5
2016-10-08T05:55:44.679Z,9.43
2016-10-08T05:57:44.744Z,9.48
2016-10-08T05:58:44.753Z,9.43
2016-10-08T05:59:44.766Z,9.5
2016-10-08T06:00:44.782Z,9.4
2016-10-08T06:01:44.802Z,9.43
2016-10-08T06:03:44.849Z,9.46
2016-10-08T06:04:44.878Z,9.42
2016-10-08T06:05:44.885Z,9.56
2016-10-08T06:06:44.926Z,9.54
2016-10-08T06:07:44.930Z,9.58
2016-10-08T06:08:44.957Z,9.61
2016-10-08T06:09:44.967Z,9.53
2016-10-08T06:10:44.990Z,9.6
2016-10-08T06:11:45.026Z,9.56
2016-10-08T06:12:45.038Z,9.56
2016-10-08T06:13:45.058Z,9.64
2016-10-08T06:14:45.083Z,9.61
2016-10-08T06:15:45.099Z,9.5
2016-10-08T06:17:00.036Z,9.58
2016-10-08T06:17:45.138Z,9.6
2016-10-08T06:18:45.470Z,9.56
2016-10-08T06:19:45.179Z,9.64
2016-10-08T06:20:45.196Z,9.64
2016-10-08T06:21:45.221Z,9.57
2016-10-08T06:22:45.241Z,9.57
2016-10-08T06:23:45.265Z,9.64
2016-10-08T06:24:45.279Z,9.64
2016-10-08T06:25:45.306Z,9.6
2016-10-08T06:27:00.253Z,9.64
2016-10-08T06:27:45.343Z,9.6
2016-10-08T06:28:45.381Z,9.6
2016-10-08T06:29:45.389Z,9.57
2016-10-08T06:30:45.411Z,9.6
2016-10-08T06:31:45.434Z,9.57
2016-10-08T06:33:00.377Z,9.64
2016-10-08T06:33:45.473Z,9.66
2016-10-08T06:34:45.792Z,9.64
2016-10-08T06:35:45.516Z,9.61
2016-10-08T06:36:45.534Z,9.53
2016-10-08T06:37:45.567Z,9.57
2016-10-08T06:38:45.579Z,9.58
2016-10-08T06:40:45.619Z,9.64
2016-10-08T06:41:45.635Z,9.72
2016-10-08T06:42:45.660Z,9.61
2016-10-08T06:43:45.680Z,9.64
2016-10-08T06:44:45.700Z,9.65
2016-10-08T06:46:00.645Z,9.57
2016-10-08T06:46:45.745Z,9.66
2016-10-08T06:48:00.682Z,9.74
2016-10-08T06:49:00.704Z,9.69
2016-10-08T06:50:00.723Z,9.74
2016-10-08T06:50:45.828Z,9.68
2016-10-08T06:51:45.841Z,9.78
2016-10-08T06:52:45.864Z,9.72
2016-10-08T06:53:45.886Z,9.66
2016-10-08T06:54:45.909Z,9.69
2016-10-08T06:55:45.939Z,9.81
2016-10-08T06:56:45.958Z,9.72
2016-10-08T06:57:45.970Z,9.72
2016-10-08T06:58:45.985Z,9.81
2016-10-08T06:59:46.008Z,9.71
2016-10-08T07:00:46.030Z,9.75
2016-10-08T07:01:46.053Z,9.83
2016-10-08T07:02:46.075Z,9.76
2016-10-08T07:04:01.017Z,9.89
2016-10-08T07:05:01.043Z,9.79
2016-10-08T07:05:46.144Z,9.84
2016-10-08T07:06:46.159Z,9.83
2016-10-08T07:07:46.176Z,9.9
2016-10-08T07:08:46.205Z,9.96
2016-10-08T07:09:46.221Z,9.96
2016-10-08T07:10:46.238Z,10.02
2016-10-08T07:11:46.262Z,10.01
2016-10-08T07:12:46.285Z,10.18
2016-10-08T07:13:46.303Z,10.05
2016-10-08T07:14:46.327Z,10.04
2016-10-08T07:15:46.355Z,10.07
2016-10-08T07:16:46.363Z,10.02
2016-10-08T07:17:46.390Z,10.17
2016-10-08T07:18:46.411Z,10.17
2016-10-08T07:20:01.351Z,10.04
2016-10-08T07:21:46.470Z,10.09
2016-10-08T07:22:46.490Z,10.22
2016-10-08T07:23:46.513Z,10.15
2016-10-08T07:24:46.785Z,10.12
2016-10-08T07:25:46.559Z,10.17
2016-10-08T07:26:46.580Z,10.18
2016-10-08T07:27:46.597Z,10.29
2016-10-08T07:28:46.618Z,10.23
2016-10-08T07:29:46.642Z,10.23
2016-10-08T07:30:46.660Z,10.3
2016-10-08T07:31:46.682Z,10.23
2016-10-08T07:33:01.626Z,10.27
2016-10-08T07:34:47.046Z,10.4
2016-10-08T07:35:46.765Z,10.51
2016-10-08T07:36:46.785Z,10.44
2016-10-08T07:37:46.812Z,10.55
2016-10-08T07:38:46.838Z,10.55
2016-10-08T07:39:46.855Z,10.61
2016-10-08T07:40:47.123Z,10.7
2016-10-08T07:41:46.894Z,10.91
2016-10-08T07:42:46.928Z,10.97
2016-10-08T07:43:46.936Z,10.89
2016-10-08T07:44:47.213Z,11.02
2016-10-08T07:45:46.983Z,11.09
2016-10-08T07:46:47.001Z,11.04
2016-10-08T07:49:01.971Z,10.97
2016-10-08T07:49:47.067Z,10.89
2016-10-08T07:50:47.096Z,10.88
2016-10-08T07:52:02.040Z,11.06
2016-10-08T07:52:47.139Z,11.07
2016-10-08T07:53:47.156Z,11.1
2016-10-08T07:54:47.181Z,11.04
2016-10-08T07:55:47.214Z,11.04
2016-10-08T07:56:47.235Z,11.04
2016-10-08T07:57:47.249Z,11
2016-10-08T07:58:47.266Z,10.99
2016-10-08T08:00:47.313Z,11.07
2016-10-08T08:01:47.338Z,11.22
2016-10-08T08:03:47.400Z,11.19
2016-10-08T08:04:47.405Z,11.11
2016-10-08T08:05:47.423Z,11.25
2016-10-08T08:07:02.372Z,11.17
2016-10-08T08:08:02.392Z,11.1
2016-10-08T08:08:47.498Z,11.17
2016-10-08T08:09:47.526Z,11.29
2016-10-08T08:10:47.543Z,11.47
2016-10-08T08:11:47.763Z,11.46
2016-10-08T08:12:47.588Z,11.47
2016-10-08T08:13:47.605Z,11.57
2016-10-08T08:14:47.890Z,11.7
2016-10-08T08:15:47.651Z,11.78
2016-10-08T08:16:47.677Z,11.79
2016-10-08T08:17:47.703Z,11.78
2016-10-08T08:18:47.724Z,11.85
2016-10-08T08:19:47.746Z,11.79
2016-10-08T08:20:47.772Z,11.76
2016-10-08T08:21:47.798Z,11.85
2016-10-08T08:22:47.819Z,11.9
2016-10-08T08:24:02.764Z,11.96
2016-10-08T08:24:47.862Z,11.98
2016-10-08T08:25:47.899Z,11.99
2016-10-08T08:26:47.906Z,11.95
2016-10-08T08:27:47.931Z,12.07
2016-10-08T08:28:47.955Z,12.02
2016-10-08T08:29:47.974Z,12.02
2016-10-08T08:30:47.995Z,12.04
2016-10-08T08:31:48.027Z,12.05
2016-10-08T08:32:48.062Z,12.13
2016-10-08T08:33:48.384Z,12.16
2016-10-08T08:35:48.122Z,12.12
2016-10-08T08:36:48.147Z,12.2
2016-10-08T08:37:48.416Z,12.14
2016-10-08T08:38:48.188Z,12.14
2016-10-08T08:40:03.135Z,12.19
2016-10-08T08:40:48.245Z,12.19
2016-10-08T08:41:48.260Z,12.35
2016-10-08T08:42:48.284Z,12.45
2016-10-08T08:43:48.663Z,12.52
2016-10-08T08:44:48.331Z,12.67
2016-10-08T08:45:48.351Z,12.75
2016-10-08T08:46:48.378Z,12.68
2016-10-08T08:47:48.402Z,12.47
2016-10-08T08:48:48.422Z,12.41
2016-10-08T08:49:48.448Z,12.42
2016-10-08T08:50:48.471Z,12.67
2016-10-08T08:51:48.496Z,12.74
2016-10-08T08:52:48.524Z,12.78
2016-10-08T08:53:48.548Z,12.64
2016-10-08T08:55:03.494Z,12.49
2016-10-08T08:55:48.590Z,12.35
2016-10-08T08:56:48.618Z,12.24
2016-10-08T08:57:48.638Z,12.28
2016-10-08T08:58:48.768Z,12.38
2016-10-08T08:59:48.689Z,12.24
2016-10-08T09:00:48.712Z,12.31
2016-10-08T09:01:48.739Z,12.65
2016-10-08T09:02:48.766Z,13.04
2016-10-08T09:03:48.789Z,13.23
2016-10-08T09:06:48.856Z,13.45
2016-10-08T09:07:48.882Z,13.17
2016-10-08T09:08:48.909Z,13.05
2016-10-08T09:09:48.927Z,12.77
2016-10-08T09:10:48.957Z,12.78
2016-10-08T09:11:48.981Z,12.79
2016-10-08T09:12:49.004Z,12.53
2016-10-08T09:13:49.026Z,12.49
2016-10-08T09:14:49.055Z,12.35
2016-10-08T09:15:49.079Z,12.46
2016-10-08T09:16:49.097Z,12.49
2016-10-08T09:17:49.125Z,12.57
2016-10-08T09:18:49.151Z,12.7
2016-10-08T09:19:49.172Z,12.83
2016-10-08T09:20:49.198Z,13.19
2016-10-08T09:21:49.226Z,13.01
2016-10-08T09:22:49.290Z,12.65
2016-10-08T09:23:49.275Z,12.77
2016-10-08T09:24:49.299Z,12.68
2016-10-08T09:25:49.322Z,12.82
2016-10-08T09:27:04.272Z,12.9
2016-10-08T09:27:49.368Z,13.01
2016-10-08T09:28:49.402Z,13
2016-10-08T09:29:49.412Z,13.23
2016-10-08T09:30:49.448Z,13.46
2016-10-08T09:31:49.466Z,13.85
2016-10-08T09:32:49.489Z,14.2
2016-10-08T09:33:49.515Z,14.25
2016-10-08T09:34:49.537Z,13.99
2016-10-08T09:35:49.560Z,14.09
2016-10-08T09:36:49.595Z,14.14
2016-10-08T09:37:49.616Z,14.27
2016-10-08T09:38:49.638Z,14.17
2016-10-08T09:39:49.664Z,14.17
2016-10-08T09:40:49.690Z,14.17
2016-10-08T09:41:49.719Z,14.15
2016-10-08T09:43:04.660Z,13.63
2016-10-08T09:43:49.765Z,13.51
2016-10-08T09:44:49.787Z,13.22
2016-10-08T09:45:49.837Z,13.12
2016-10-08T09:46:49.840Z,12.87
2016-10-08T09:47:49.863Z,12.74
2016-10-08T09:48:49.889Z,12.75
2016-10-08T09:49:49.915Z,12.6
2016-10-08T09:50:49.938Z,12.42
2016-10-08T09:51:49.962Z,12.5
2016-10-08T09:52:49.992Z,12.5
2016-10-08T09:53:50.012Z,12.52
2016-10-08T09:54:50.038Z,12.54
2016-10-08T09:56:04.983Z,12.52
2016-10-08T09:56:50.086Z,12.5
2016-10-08T09:58:05.029Z,12.65
2016-10-08T09:59:05.059Z,12.75
2016-10-08T09:59:50.157Z,12.87
2016-10-08T10:01:50.202Z,12.9
2016-10-08T10:02:50.238Z,12.97
2016-10-08T10:03:50.251Z,13.2
2016-10-08T10:04:50.277Z,13.33
2016-10-08T10:05:50.553Z,13.33
2016-10-08T10:06:50.329Z,13.38
2016-10-08T10:07:50.353Z,13.22
2016-10-08T10:08:50.381Z,13.39
2016-10-08T10:10:50.419Z,13.48
2016-10-08T10:11:50.444Z,13.45
2016-10-08T10:12:50.472Z,13.39
2016-10-08T10:14:05.666Z,12.87
2016-10-08T10:15:05.452Z,12.93
2016-10-08T10:15:50.552Z,12.79
2016-10-08T10:16:50.568Z,12.71
2016-10-08T10:17:50.591Z,12.7
2016-10-08T10:18:50.615Z,12.77
2016-10-08T10:19:50.645Z,12.78
2016-10-08T10:20:50.666Z,12.77
2016-10-08T10:21:50.683Z,12.85
2016-10-08T10:22:50.712Z,12.7
2016-10-08T10:23:50.730Z,12.56
2016-10-08T10:24:50.754Z,12.47
2016-10-08T10:25:50.796Z,12.42
2016-10-08T10:26:50.811Z,12.35
2016-10-08T10:27:50.827Z,12.35
2016-10-08T10:28:50.863Z,12.45
2016-10-08T10:30:05.807Z,12.31
2016-10-08T10:30:50.911Z,12.17
2016-10-08T10:31:50.924Z,12.13
2016-10-08T10:32:50.945Z,11.98
2016-10-08T10:33:50.978Z,11.78
2016-10-08T10:34:50.996Z,11.72
2016-10-08T10:35:51.019Z,11.79
2016-10-08T10:36:51.295Z,11.79
2016-10-08T10:37:51.069Z,11.8
2016-10-08T10:38:51.090Z,11.83
2016-10-08T10:39:51.115Z,11.91
2016-10-08T10:41:06.062Z,11.83
2016-10-08T10:41:51.163Z,11.96
2016-10-08T10:43:06.105Z,12.12
2016-10-08T10:43:51.208Z,12.29
2016-10-08T10:44:51.233Z,12.41
2016-10-08T10:45:51.254Z,12.54
2016-10-08T10:46:51.281Z,12.64
2016-10-08T10:47:51.294Z,12.85
2016-10-08T10:48:51.589Z,12.97
2016-10-08T10:49:51.346Z,12.92
2016-10-08T10:50:51.383Z,12.9
2016-10-08T10:51:51.406Z,13.04
2016-10-08T10:52:51.413Z,13.15
2016-10-08T10:53:51.452Z,13.17
2016-10-08T10:54:51.463Z,13.17
2016-10-08T10:55:51.486Z,13.19
2016-10-08T10:56:51.505Z,13.22
2016-10-08T10:57:51.527Z,13.19
2016-10-08T10:58:51.555Z,12.93
2016-10-08T11:00:51.619Z,13.03
2016-10-08T11:02:06.550Z,12.9
2016-10-08T11:02:51.658Z,12.93
2016-10-08T11:03:51.671Z,12.93
2016-10-08T11:04:51.694Z,13.01
2016-10-08T11:06:51.747Z,13.01
2016-10-08T11:08:51.789Z,13.04
2016-10-08T11:09:51.808Z,13.2
2016-10-08T11:10:51.833Z,13.29
2016-10-08T11:11:51.859Z,13.19
2016-10-08T11:12:51.882Z,12.97
2016-10-08T11:14:06.831Z,12.95
2016-10-08T11:16:51.988Z,13.17
2016-10-08T11:18:06.923Z,13.28
2016-10-08T11:18:52.026Z,13.49
2016-10-08T11:19:52.049Z,13.67
2016-10-08T11:20:52.072Z,13.63
2016-10-08T11:21:52.099Z,13.63
2016-10-08T11:22:52.119Z,13.55
2016-10-08T11:23:52.154Z,13.44
2016-10-08T11:24:52.164Z,13.36
2016-10-08T11:25:52.191Z,13.48
2016-10-08T11:26:52.211Z,13.52
2016-10-08T11:27:52.239Z,13.46
2016-10-08T11:29:07.187Z,13.33
2016-10-08T11:29:52.286Z,13.36
2016-10-08T11:30:52.310Z,13.45
2016-10-08T11:31:52.631Z,13.54
2016-10-08T11:32:52.355Z,13.64
2016-10-08T11:34:07.301Z,13.63
2016-10-08T11:34:52.400Z,13.55
2016-10-08T11:35:52.425Z,13.48
2016-10-08T11:36:52.446Z,13.57
2016-10-08T11:37:52.477Z,13.57
2016-10-08T11:38:52.745Z,13.51
2016-10-08T11:39:52.523Z,13.6
2016-10-08T11:41:52.569Z,13.66
2016-10-08T11:42:52.845Z,13.69
2016-10-08T11:44:52.641Z,13.57
2016-10-08T11:45:52.911Z,13.59
2016-10-08T11:46:52.686Z,13.59
2016-10-08T11:47:52.711Z,13.52
2016-10-08T11:48:52.731Z,13.52
2016-10-08T11:50:07.679Z,13.46
2016-10-08T11:50:52.782Z,13.28
2016-10-08T11:51:52.803Z,13.25
2016-10-08T11:52:52.824Z,13.39
2016-10-08T11:53:52.847Z,13.32
2016-10-08T11:54:52.884Z,13.17
2016-10-08T11:56:08.066Z,13.19
2016-10-08T11:56:52.933Z,13.17
2016-10-08T11:57:52.952Z,13.19
2016-10-08T12:00:53.013Z,13.41
2016-10-08T12:02:07.962Z,13.51
2016-10-08T12:02:53.364Z,13.48
2016-10-08T12:03:53.083Z,13.57
2016-10-08T12:05:08.030Z,13.79
2016-10-08T12:05:53.134Z,13.85
2016-10-08T12:06:53.167Z,13.79
2016-10-08T12:07:53.176Z,13.67
2016-10-08T12:08:53.205Z,13.57
2016-10-08T12:09:53.223Z,13.66
2016-10-08T12:10:53.248Z,13.85
2016-10-08T12:11:53.271Z,13.97
2016-10-08T12:12:53.308Z,14.25
2016-10-08T12:13:53.317Z,14.46
2016-10-08T12:14:53.364Z,14.61
2016-10-08T12:15:53.366Z,14.47
2016-10-08T12:16:53.382Z,14.35
2016-10-08T12:17:53.410Z,14.28
2016-10-08T12:18:53.434Z,14.42
2016-10-08T12:19:53.460Z,14.42
2016-10-08T12:20:53.490Z,14.55
2016-10-08T12:21:53.505Z,14.54
2016-10-08T12:22:53.584Z,14.7
2016-10-08T12:23:53.553Z,14.57
2016-10-08T12:24:53.580Z,14.61
2016-10-08T12:25:53.603Z,14.46
2016-10-08T12:26:53.623Z,14.02
2016-10-08T12:27:53.650Z,13.95
2016-10-08T12:28:53.671Z,14.03
2016-10-08T12:30:53.722Z,13.92
2016-10-08T12:31:53.742Z,13.92
2016-10-08T12:32:53.764Z,14.06
2016-10-08T12:33:53.805Z,13.89
2016-10-08T12:34:53.817Z,13.96
2016-10-08T12:35:53.837Z,14.15
2016-10-08T12:37:08.782Z,14.12
2016-10-08T12:37:53.888Z,14.02
2016-10-08T12:38:53.915Z,14.14
2016-10-08T12:39:53.934Z,14.12
2016-10-08T12:40:53.955Z,13.91
2016-10-08T12:41:53.983Z,13.79
2016-10-08T12:42:54.006Z,13.49
2016-10-08T12:43:54.025Z,13.52
2016-10-08T12:44:54.049Z,13.6
2016-10-08T12:45:54.074Z,13.62
2016-10-08T12:46:54.100Z,13.75
2016-10-08T12:47:54.120Z,13.92
2016-10-08T12:49:09.070Z,13.71
2016-10-08T12:49:54.164Z,13.69
2016-10-08T12:50:54.190Z,13.67
2016-10-08T12:52:09.136Z,13.71
2016-10-08T12:53:09.168Z,13.67
2016-10-08T12:53:54.266Z,13.64
2016-10-08T12:54:54.288Z,13.51
2016-10-08T12:55:54.316Z,13.49
2016-10-08T12:56:54.330Z,13.49
2016-10-08T12:57:54.353Z,13.59
2016-10-08T12:58:54.376Z,13.55
2016-10-08T12:59:54.398Z,13.6
2016-10-08T13:00:54.426Z,13.55
2016-10-08T13:01:54.453Z,13.44
2016-10-08T13:04:09.420Z,13.52
2016-10-08T13:04:54.527Z,13.6
2016-10-08T13:06:09.465Z,13.48
2016-10-08T13:06:54.571Z,13.38
2016-10-08T13:08:09.510Z,13.32
2016-10-08T13:09:09.535Z,13.38
2016-10-08T13:10:09.556Z,13.54
2016-10-08T13:10:54.657Z,13.55
2016-10-08T13:11:54.686Z,13.52
2016-10-08T13:12:54.706Z,13.6
2016-10-08T13:13:54.729Z,13.73
2016-10-08T13:14:54.747Z,13.75
2016-10-08T13:15:54.780Z,13.88
2016-10-08T13:16:54.805Z,13.89
2016-10-08T13:17:54.837Z,13.75
2016-10-08T13:18:54.861Z,13.77
2016-10-08T13:19:54.862Z,13.75
2016-10-08T13:21:09.817Z,13.91
2016-10-08T13:22:09.837Z,13.77
2016-10-08T13:22:54.943Z,13.77
2016-10-08T13:23:54.960Z,13.85
2016-10-08T13:25:09.910Z,13.67
2016-10-08T13:25:55.015Z,13.79
2016-10-08T13:26:55.029Z,13.89
2016-10-08T13:27:55.056Z,13.92
2016-10-08T13:28:55.074Z,13.85
2016-10-08T13:29:55.102Z,13.99
2016-10-08T13:30:55.126Z,14
2016-10-08T13:31:55.147Z,14.09
2016-10-08T13:32:55.182Z,14.17
2016-10-08T13:33:55.198Z,14.17
2016-10-08T13:34:55.219Z,14.06
2016-10-08T13:35:55.237Z,13.97
2016-10-08T13:37:10.191Z,13.79
2016-10-08T13:37:55.290Z,13.79
2016-10-08T13:38:55.328Z,13.78
2016-10-08T13:40:55.364Z,13.66
2016-10-08T13:41:55.385Z,13.64
2016-10-08T13:42:55.401Z,13.51
2016-10-08T13:43:55.435Z,13.62
2016-10-08T13:45:55.728Z,13.57
2016-10-08T13:46:55.500Z,13.62
2016-10-08T13:47:55.520Z,13.62
2016-10-08T13:48:55.553Z,13.66
2016-10-08T13:49:55.573Z,13.63
2016-10-08T13:50:55.846Z,13.52
2016-10-08T13:51:55.624Z,13.33
2016-10-08T13:52:55.641Z,13.38
2016-10-08T13:55:10.608Z,13.2
2016-10-08T13:55:55.706Z,13.17